Time;durP1;ratioP1;P1;durP2;ratioP2;P2;SDS_P1;SDS_P2;PMS_P1;PMS_P2;Temp;Humidity;BMP_temperature;BMP_pressure;BME280_temperature;BME280_humidity;BME280_pressure;Samples;Min_cycle;Max_cycle;Signal;HPM_P1;HPM_P2
2022/01/13 00:00:32;;;;;;;12.93;5.50;;;;;;;;;;5048211;28;20029;-64
2022/01/13 00:02:58;;;;;;;12.95;5.68;;;;;;;;;;5035256;28;20404;-65
2022/01/13 00:05:28;;;;;;;10.52;5.00;;;;;;;;;;5037668;28;20026;-65
2022/01/13 00:07:55;;;;;;;11.57;5.38;;;;;;;;;;5031796;28;20044;-65
2022/01/13 00:10:22;;;;;;;12.43;5.88;;;;;;;;;;5033951;28;20022;-64
2022/01/13 00:12:50;;;;;;;11.93;5.68;;;;;;;;;;5033293;28;20503;-64
2022/01/13 00:25:18;;;;;;;8.02;3.95;;;;;;;;;;5011982;28;20041;-65
2022/01/13 00:27:50;;;;;;;9.38;4.68;;;;;;;;;;5034065;28;20039;-65
2022/01/13 00:30:18;;;;;;;6.28;3.50;;;;;;;;;;5033386;28;20037;-65
2022/01/13 00:32:45;;;;;;;8.27;3.70;;;;;;;;;;5031469;28;20033;-65
2022/01/13 00:35:12;;;;;;;9.23;4.10;;;;;;;;;;5033909;28;20029;-65
2022/01/13 00:37:38;;;;;;;10.77;5.07;;;;;;;;;;5041417;28;20048;-64
2022/01/13 00:40:05;;;;;;;10.43;4.57;;;;;;;;;;5044411;28;20038;-64
2022/01/13 00:42:31;;;;;;;7.88;4.03;;;;;;;;;;5037528;28;20033;-64
2022/01/13 00:44:57;;;;;;;5.93;2.97;;;;;;;;;;5044556;28;20032;-64
2022/01/13 00:47:23;;;;;;;7.97;4.32;;;;;;;;;;5042257;28;20029;-64
2022/01/13 00:49:49;;;;;;;9.43;4.60;;;;;;;;;;5041904;28;20026;-65
2022/01/13 00:52:15;;;;;;;10.23;5.30;;;;;;;;;;5046176;28;20064;-64
2022/01/13 00:54:41;;;;;;;8.27;4.20;;;;;;;;;;5037773;28;20028;-65
2022/01/13 00:57:08;;;;;;;6.53;3.83;;;;;;;;;;5042360;28;20036;-65
2022/01/13 00:59:34;;;;;;;9.63;4.43;;;;;;;;;;5039975;28;20017;-65
2022/01/13 01:02:00;;;;;;;8.95;4.10;;;;;;;;;;5037496;28;20056;-65
2022/01/13 01:04:26;;;;;;;8.32;4.35;;;;;;;;;;5038091;28;20034;-65
2022/01/13 01:06:52;;;;;;;12.68;4.40;;;;;;;;;;5039502;28;20029;-64
2022/01/13 01:09:30;;;;;;;9.55;4.75;;;;;;;;;;5042041;28;20113;-65
2022/01/13 01:11:56;;;;;;;9.68;4.57;;;;;;;;;;5034228;28;20037;-64
2022/01/13 01:14:24;;;;;;;9.95;3.92;;;;;;;;;;5038331;28;20026;-64
2022/01/13 01:16:50;;;;;;;6.78;3.75;;;;;;;;;;5036160;28;20433;-64
2022/01/13 01:19:26;;;;;;;10.00;3.80;;;;;;;;;;5046751;28;20028;-65
2022/01/13 01:27:35;;;;;;;7.57;3.75;;;;;;;;;;5036528;28;20033;-65
2022/01/13 01:30:12;;;;;;;9.00;4.47;;;;;;;;;;5038455;28;20028;-64
2022/01/13 01:32:39;;;;;;;8.93;3.70;;;;;;;;;;5037799;28;20040;-64
2022/01/13 01:35:13;;;;;;;10.27;4.65;;;;;;;;;;5034618;28;20033;-65
2022/01/13 01:37:39;;;;;;;7.85;4.35;;;;;;;;;;5043155;28;20087;-64
2022/01/13 01:40:06;;;;;;;8.80;4.68;;;;;;;;;;5042747;28;20044;-64
2022/01/13 01:42:32;;;;;;;8.57;4.13;;;;;;;;;;5049006;28;20029;-64
2022/01/13 01:44:59;;;;;;;5.90;3.17;;;;;;;;;;5035243;28;20492;-64
2022/01/13 01:47:27;;;;;;;8.60;3.50;;;;;;;;;;5044274;28;20028;-65
2022/01/13 01:49:56;;;;;;;8.07;4.25;;;;;;;;;;5041926;28;20041;-65
2022/01/13 01:52:22;;;;;;;9.95;4.07;;;;;;;;;;5044435;28;20036;-64
2022/01/13 01:54:49;;;;;;;9.25;4.00;;;;;;;;;;5035237;28;20032;-65
2022/01/13 01:57:16;;;;;;;9.85;4.45;;;;;;;;;;5040710;28;20033;-64
2022/01/13 01:59:43;;;;;;;9.43;4.70;;;;;;;;;;5037148;28;20440;-64
2022/01/13 02:02:11;;;;;;;8.20;4.68;;;;;;;;;;5033678;28;20282;-64
2022/01/13 02:04:38;;;;;;;8.90;4.20;;;;;;;;;;5032135;28;20059;-64
2022/01/13 02:07:07;;;;;;;8.55;3.88;;;;;;;;;;5039585;28;20116;-65
2022/01/13 02:09:35;;;;;;;8.10;3.97;;;;;;;;;;5036044;28;20021;-64
2022/01/13 02:12:06;;;;;;;7.90;3.10;;;;;;;;;;5040834;28;20147;-64
2022/01/13 02:14:35;;;;;;;8.98;3.60;;;;;;;;;;5038115;28;20053;-65
2022/01/13 02:17:14;;;;;;;7.70;3.47;;;;;;;;;;5033040;28;20112;-64
2022/01/13 02:19:42;;;;;;;6.65;3.28;;;;;;;;;;5030255;28;20018;-64
2022/01/13 02:22:08;;;;;;;7.28;3.80;;;;;;;;;;5045637;28;20033;-64
2022/01/13 02:24:34;;;;;;;6.78;3.22;;;;;;;;;;5035906;28;20119;-64
2022/01/13 02:27:01;;;;;;;5.03;2.33;;;;;;;;;;5036191;28;20431;-64
2022/01/13 02:29:27;;;;;;;6.07;2.90;;;;;;;;;;5038414;28;20108;-64
2022/01/13 02:31:53;;;;;;;6.25;2.65;;;;;;;;;;5033841;28;20048;-65
2022/01/13 02:34:20;;;;;;;8.80;3.75;;;;;;;;;;5033894;28;20096;-65
2022/01/13 02:36:46;;;;;;;6.70;3.58;;;;;;;;;;5035018;28;20048;-65
2022/01/13 02:39:12;;;;;;;6.90;3.13;;;;;;;;;;5037579;28;20040;-64
2022/01/13 02:41:38;;;;;;;6.38;3.20;;;;;;;;;;5039397;28;20017;-64
2022/01/13 02:44:13;;;;;;;6.07;2.83;;;;;;;;;;5041723;28;20063;-66
2022/01/13 02:49:07;;;;;;;7.15;2.17;;;;;;;;;;5030387;28;20038;-65
2022/01/13 02:51:33;;;;;;;5.90;2.72;;;;;;;;;;5045755;28;20563;-65
2022/01/13 02:53:59;;;;;;;4.22;2.50;;;;;;;;;;5041979;28;20033;-65
2022/01/13 02:56:25;;;;;;;9.07;3.80;;;;;;;;;;5042953;28;20025;-65
2022/01/13 02:58:51;;;;;;;9.07;4.10;;;;;;;;;;5043224;28;20028;-65
2022/01/13 03:01:17;;;;;;;7.43;3.42;;;;;;;;;;5039892;28;20017;-64
2022/01/13 03:03:44;;;;;;;8.45;3.00;;;;;;;;;;5050137;28;20074;-64
2022/01/13 03:06:14;;;;;;;7.07;3.15;;;;;;;;;;5034534;28;20037;-64
2022/01/13 03:08:42;;;;;;;7.72;3.42;;;;;;;;;;5032070;28;20025;-64
2022/01/13 03:11:09;;;;;;;7.57;3.42;;;;;;;;;;5034564;28;20024;-64
2022/01/13 03:13:35;;;;;;;6.57;3.33;;;;;;;;;;5043538;28;20046;-64
2022/01/13 03:16:08;;;;;;;8.63;3.35;;;;;;;;;;5034996;28;20132;-65
2022/01/13 03:18:34;;;;;;;6.68;3.42;;;;;;;;;;5034603;28;20536;-65
2022/01/13 03:21:00;;;;;;;6.50;3.55;;;;;;;;;;5038930;28;20025;-65
2022/01/13 03:23:26;;;;;;;7.30;2.78;;;;;;;;;;5043347;28;20481;-65
2022/01/13 03:25:53;;;;;;;5.80;3.20;;;;;;;;;;5042732;28;20116;-64
2022/01/13 03:28:29;;;;;;;6.88;3.22;;;;;;;;;;5028389;28;20224;-65
2022/01/13 03:30:55;;;;;;;5.45;2.53;;;;;;;;;;5033056;28;20053;-64
2022/01/13 03:33:21;;;;;;;5.47;2.90;;;;;;;;;;5045789;28;20365;-64
2022/01/13 03:35:47;;;;;;;4.38;2.17;;;;;;;;;;5039388;28;20425;-64
2022/01/13 03:38:13;;;;;;;4.30;2.30;;;;;;;;;;5031871;28;20155;-64
2022/01/13 03:40:40;;;;;;;7.30;2.50;;;;;;;;;;5031029;28;20028;-64
2022/01/13 03:43:06;;;;;;;8.15;2.70;;;;;;;;;;5041341;28;20122;-64
2022/01/13 03:45:32;;;;;;;5.47;2.53;;;;;;;;;;5048565;28;20480;-64
2022/01/13 03:47:59;;;;;;;6.47;3.28;;;;;;;;;;5033113;28;20079;-64
2022/01/13 03:50:25;;;;;;;6.10;2.97;;;;;;;;;;5034061;28;20053;-64
2022/01/13 03:53:03;;;;;;;5.90;3.35;;;;;;;;;;5042396;28;20064;-65
2022/01/13 03:55:38;;;;;;;6.40;3.38;;;;;;;;;;5029828;28;20025;-64
2022/01/13 03:58:23;;;;;;;8.00;3.47;;;;;;;;;;5043549;28;20100;-64
2022/01/13 04:00:59;;;;;;;6.43;3.00;;;;;;;;;;5028814;28;20473;-64
2022/01/13 04:03:25;;;;;;;6.78;3.50;;;;;;;;;;5046970;28;20639;-64
2022/01/13 04:06:08;;;;;;;4.45;2.60;;;;;;;;;;5034365;28;20116;-64
2022/01/13 04:08:34;;;;;;;6.65;2.78;;;;;;;;;;5031179;28;20026;-64
2022/01/13 04:11:06;;;;;;;6.93;3.03;;;;;;;;;;5033426;28;20613;-64
2022/01/13 04:16:10;;;;;;;;;;;;;;;;;;5041007;28;20029;-64
2022/01/13 04:18:36;;;;;;;4.32;2.63;;;;;;;;;;5038268;28;19905;-65
2022/01/13 04:21:02;;;;;;;8.13;4.40;;;;;;;;;;5042258;28;20037;-64
2022/01/13 04:23:28;;;;;;;5.55;3.00;;;;;;;;;;5048605;28;20476;-65
2022/01/13 04:25:54;;;;;;;7.07;3.30;;;;;;;;;;5046319;28;20118;-65
2022/01/13 04:28:26;;;;;;;6.03;2.75;;;;;;;;;;5047991;28;20040;-64
2022/01/13 04:31:00;;;;;;;6.90;2.75;;;;;;;;;;5035399;28;20033;-65
2022/01/13 04:33:26;;;;;;;3.22;2.00;;;;;;;;;;5041754;28;20114;-66
2022/01/13 04:35:52;;;;;;;5.25;2.67;;;;;;;;;;5037735;28;20485;-64
2022/01/13 04:38:18;;;;;;;5.97;2.40;;;;;;;;;;5034793;28;20052;-64
2022/01/13 04:40:46;;;;;;;4.65;2.28;;;;;;;;;;5033835;28;20118;-64
2022/01/13 04:43:12;;;;;;;4.72;2.30;;;;;;;;;;5033943;28;20029;-65
2022/01/13 04:45:39;;;;;;;6.03;2.88;;;;;;;;;;5036337;28;20458;-64
2022/01/13 04:48:05;;;;;;;5.25;2.45;;;;;;;;;;5032906;28;20476;-64
2022/01/13 04:50:31;;;;;;;6.85;2.60;;;;;;;;;;5034086;28;20075;-64
2022/01/13 04:52:57;;;;;;;5.25;2.60;;;;;;;;;;5032411;28;20044;-64
2022/01/13 04:55:25;;;;;;;6.00;3.42;;;;;;;;;;5033431;28;20029;-64
2022/01/13 04:57:52;;;;;;;5.55;2.33;;;;;;;;;;5032527;28;20060;-64
2022/01/13 05:00:19;;;;;;;4.75;1.95;;;;;;;;;;5037467;28;20112;-64
2022/01/13 05:02:45;;;;;;;5.60;2.53;;;;;;;;;;5035000;28;20028;-62
2022/01/13 05:05:11;;;;;;;3.85;2.15;;;;;;;;;;5036731;28;20029;-64
2022/01/13 05:07:37;;;;;;;4.10;1.98;;;;;;;;;;5048163;28;20013;-64
2022/01/13 05:10:03;;;;;;;4.10;1.92;;;;;;;;;;5031682;28;20439;-64
2022/01/13 05:12:36;;;;;;;4.72;1.95;;;;;;;;;;5043710;28;20033;-64
2022/01/13 05:15:05;;;;;;;3.25;1.70;;;;;;;;;;5035175;28;20037;-64
2022/01/13 05:20:19;;;;;;;4.22;2.08;;;;;;;;;;5038840;28;20068;-64
2022/01/13 05:22:45;;;;;;;4.68;2.42;;;;;;;;;;5045854;28;20365;-64
2022/01/13 05:25:11;;;;;;;6.13;2.88;;;;;;;;;;5039454;28;20034;-64
2022/01/13 05:27:37;;;;;;;5.35;2.50;;;;;;;;;;5037357;28;20028;-64
2022/01/13 05:30:04;;;;;;;3.75;2.00;;;;;;;;;;5034104;28;20029;-64
2022/01/13 05:32:30;;;;;;;4.57;2.33;;;;;;;;;;5036222;28;20036;-64
2022/01/13 05:34:56;;;;;;;1.65;1.20;;;;;;;;;;5031969;28;20104;-64
2022/01/13 05:37:22;;;;;;;5.50;2.42;;;;;;;;;;5029954;28;20121;-64
2022/01/13 05:39:48;;;;;;;8.43;2.42;;;;;;;;;;5041367;28;20102;-65
2022/01/13 05:42:14;;;;;;;6.13;2.92;;;;;;;;;;5030341;28;20113;-64
2022/01/13 05:44:40;;;;;;;5.72;2.72;;;;;;;;;;5034324;28;20468;-65
2022/01/13 05:47:07;;;;;;;3.88;2.05;;;;;;;;;;5029730;28;20033;-64
2022/01/13 05:49:33;;;;;;;5.95;2.70;;;;;;;;;;5033585;28;20165;-64
2022/01/13 05:51:59;;;;;;;7.50;2.97;;;;;;;;;;5047398;28;20147;-64
2022/01/13 05:54:25;;;;;;;6.22;2.25;;;;;;;;;;5034648;28;20033;-64
2022/01/13 05:56:51;;;;;;;5.32;2.28;;;;;;;;;;5033799;28;20029;-64
2022/01/13 05:59:17;;;;;;;5.97;2.25;;;;;;;;;;5032144;28;20036;-69
2022/01/13 06:01:43;;;;;;;4.95;2.03;;;;;;;;;;5033246;28;20108;-69
2022/01/13 06:04:09;;;;;;;5.15;2.90;;;;;;;;;;5030647;28;20029;-69
2022/01/13 06:06:35;;;;;;;4.97;2.55;;;;;;;;;;5035923;28;20108;-69
2022/01/13 06:09:01;;;;;;;4.82;2.35;;;;;;;;;;5032403;28;20536;-69
2022/01/13 06:11:36;;;;;;;6.00;2.10;;;;;;;;;;5032407;28;20073;-69
2022/01/13 06:14:02;;;;;;;4.60;2.50;;;;;;;;;;5031773;28;20035;-69
2022/01/13 06:16:28;;;;;;;4.57;2.47;;;;;;;;;;5033603;28;20061;-69
2022/01/13 06:18:54;;;;;;;5.63;2.50;;;;;;;;;;5034187;28;20021;-69
2022/01/13 06:21:20;;;;;;;4.95;2.15;;;;;;;;;;5032693;28;20029;-69
2022/01/13 06:23:46;;;;;;;3.90;2.10;;;;;;;;;;5031377;28;20026;-68
2022/01/13 06:26:12;;;;;;;5.20;2.70;;;;;;;;;;5031303;28;20059;-69
2022/01/13 06:28:38;;;;;;;7.00;3.35;;;;;;;;;;5030657;28;20432;-69
2022/01/13 06:31:05;;;;;;;5.75;2.67;;;;;;;;;;5029629;28;20493;-69
2022/01/13 06:33:31;;;;;;;6.78;3.28;;;;;;;;;;5031008;28;20116;-69
2022/01/13 06:35:57;;;;;;;5.45;2.80;;;;;;;;;;5028463;28;20051;-68
2022/01/13 06:38:23;;;;;;;7.60;3.25;;;;;;;;;;5030119;28;20044;-68
2022/01/13 06:40:50;;;;;;;3.75;2.35;;;;;;;;;;5029844;28;20093;-69
2022/01/13 06:43:16;;;;;;;6.13;2.78;;;;;;;;;;5031319;28;20036;-68
2022/01/13 06:45:42;;;;;;;5.30;2.55;;;;;;;;;;5031610;28;20491;-69
2022/01/13 06:48:08;;;;;;;7.53;3.10;;;;;;;;;;5030828;28;20033;-68
2022/01/13 06:50:35;;;;;;;5.70;2.65;;;;;;;;;;5030951;28;20029;-68
2022/01/13 06:53:01;;;;;;;6.80;2.63;;;;;;;;;;5031501;28;20033;-68
2022/01/13 06:55:27;;;;;;;4.55;2.47;;;;;;;;;;5030747;28;20018;-72
2022/01/13 06:57:53;;;;;;;6.78;3.17;;;;;;;;;;5030643;28;20025;-69
2022/01/13 07:00:20;;;;;;;5.55;2.75;;;;;;;;;;5033929;28;20058;-69
2022/01/13 07:02:46;;;;;;;7.05;3.28;;;;;;;;;;5031466;28;20079;-70
2022/01/13 07:05:12;;;;;;;6.20;3.00;;;;;;;;;;5030334;28;20116;-70
2022/01/13 07:07:42;;;;;;;6.03;2.60;;;;;;;;;;5030920;28;20036;-69
2022/01/13 07:10:10;;;;;;;6.25;2.70;;;;;;;;;;5029351;28;20029;-71
2022/01/13 07:12:36;;;;;;;9.20;4.15;;;;;;;;;;5034360;28;20370;-65
2022/01/13 07:15:03;;;;;;;6.35;3.03;;;;;;;;;;5029342;28;20030;-65
2022/01/13 07:17:29;;;;;;;6.43;3.40;;;;;;;;;;5030996;28;20500;-63
2022/01/13 07:19:55;;;;;;;6.00;3.28;;;;;;;;;;5034113;28;20048;-63
2022/01/13 07:22:21;;;;;;;4.40;2.33;;;;;;;;;;5043194;28;20030;-65
2022/01/13 07:24:47;;;;;;;5.25;2.65;;;;;;;;;;5035163;28;20032;-66
2022/01/13 07:27:13;;;;;;;5.30;2.58;;;;;;;;;;5032974;28;20113;-68
2022/01/13 07:29:45;;;;;;;7.60;3.08;;;;;;;;;;5030986;28;20029;-66
2022/01/13 07:32:12;;;;;;;6.00;2.60;;;;;;;;;;5034641;28;20114;-69
2022/01/13 07:34:38;;;;;;;5.38;3.00;;;;;;;;;;5047186;28;20021;-70
2022/01/13 07:37:04;;;;;;;5.72;2.72;;;;;;;;;;5036132;28;20081;-68
2022/01/13 07:39:31;;;;;;;5.00;2.50;;;;;;;;;;5034203;28;20090;-70
2022/01/13 07:41:57;;;;;;;6.05;2.10;;;;;;;;;;5028361;28;20394;-72
2022/01/13 07:44:23;;;;;;;4.82;2.58;;;;;;;;;;5031964;28;20030;-70
2022/01/13 07:46:49;;;;;;;8.10;3.17;;;;;;;;;;5034596;28;20028;-74
2022/01/13 07:49:15;;;;;;;4.63;2.55;;;;;;;;;;5046542;28;20025;-72
2022/01/13 07:51:41;;;;;;;4.10;2.20;;;;;;;;;;5053405;28;20053;-72
2022/01/13 07:54:07;;;;;;;5.72;2.40;;;;;;;;;;5036272;28;20106;-66
2022/01/13 07:56:34;;;;;;;5.80;2.40;;;;;;;;;;5035959;28;20396;-61
2022/01/13 07:59:00;;;;;;;6.05;2.88;;;;;;;;;;5039409;28;20017;-66
2022/01/13 08:01:26;;;;;;;6.85;2.25;;;;;;;;;;5032833;28;20112;-61
2022/01/13 08:03:51;;;;;;;5.47;2.20;;;;;;;;;;5036666;28;20040;-62
2022/01/13 08:06:18;;;;;;;8.68;2.65;;;;;;;;;;5037140;28;20528;-62
2022/01/13 08:08:44;;;;;;;8.90;4.70;;;;;;;;;;5039048;28;20029;-61
2022/01/13 08:11:10;;;;;;;12.48;6.88;;;;;;;;;;5037916;28;20025;-62
2022/01/13 08:13:37;;;;;;;6.75;3.00;;;;;;;;;;5038891;28;20040;-62
2022/01/13 08:16:07;;;;;;;6.22;2.80;;;;;;;;;;5033358;28;20022;-62
2022/01/13 08:21:18;;;;;;;7.35;3.85;;;;;;;;;;5046439;28;20040;-62
2022/01/13 08:23:44;;;;;;;7.93;3.88;;;;;;;;;;5035905;28;20026;-62
2022/01/13 08:26:11;;;;;;;10.32;5.40;;;;;;;;;;5035215;28;20071;-62
2022/01/13 08:28:37;;;;;;;10.77;5.78;;;;;;;;;;5036527;28;20400;-62
2022/01/13 08:31:05;;;;;;;11.20;6.60;;;;;;;;;;5033542;28;20033;-61
2022/01/13 08:33:32;;;;;;;11.98;6.65;;;;;;;;;;5042744;28;20044;-62
2022/01/13 08:35:58;;;;;;;11.00;6.13;;;;;;;;;;5037023;28;20029;-62
2022/01/13 08:38:25;;;;;;;10.70;5.47;;;;;;;;;;5036578;28;20038;-62
2022/01/13 08:40:56;;;;;;;10.40;5.72;;;;;;;;;;5040051;28;20381;-62
2022/01/13 08:43:23;;;;;;;12.07;6.20;;;;;;;;;;5046224;28;20021;-62
2022/01/13 08:45:49;;;;;;;15.95;5.88;;;;;;;;;;5052829;28;20053;-61
2022/01/13 08:48:15;;;;;;;10.05;5.13;;;;;;;;;;5036494;28;20060;-62
2022/01/13 08:50:41;;;;;;;10.60;5.93;;;;;;;;;;5041443;28;20025;-61
2022/01/13 08:53:08;;;;;;;7.95;4.40;;;;;;;;;;5036811;28;20740;-61
2022/01/13 08:55:34;;;;;;;9.50;5.30;;;;;;;;;;5037190;28;20183;-61
2022/01/13 08:58:00;;;;;;;8.35;4.13;;;;;;;;;;5035659;28;20040;-61
2022/01/13 09:00:26;;;;;;;8.18;3.75;;;;;;;;;;5035644;28;20025;-62
2022/01/13 09:02:52;;;;;;;7.20;3.90;;;;;;;;;;5032998;28;20238;-62
2022/01/13 09:05:19;;;;;;;7.80;3.95;;;;;;;;;;5031994;28;20405;-61
2022/01/13 09:07:45;;;;;;;7.25;4.40;;;;;;;;;;5031963;28;20039;-61
2022/01/13 09:10:12;;;;;;;9.85;4.95;;;;;;;;;;5032237;28;20032;-62
2022/01/13 09:12:38;;;;;;;9.70;4.80;;;;;;;;;;5033898;28;20079;-61
2022/01/13 09:15:16;;;;;;;8.07;4.00;;;;;;;;;;5031420;28;20032;-61
2022/01/13 09:17:43;;;;;;;;;;;;;;;;;;5030281;28;20725;-62
2022/01/13 09:20:13;;;;;;;9.90;5.10;;;;;;;;;;5035695;28;19966;-61
2022/01/13 09:22:43;;;;;;;9.60;4.60;;;;;;;;;;5033240;28;20040;-61
2022/01/13 09:25:11;;;;;;;9.07;4.88;;;;;;;;;;5031829;28;20026;-61
2022/01/13 09:27:38;;;;;;;8.52;4.15;;;;;;;;;;5032902;28;20030;-61
2022/01/13 09:30:04;;;;;;;7.67;4.27;;;;;;;;;;5031433;28;20057;-61
2022/01/13 09:32:30;;;;;;;9.70;4.60;;;;;;;;;;5034153;28;20401;-61
2022/01/13 09:34:56;;;;;;;7.80;4.05;;;;;;;;;;5030997;28;20033;-61
2022/01/13 09:37:24;;;;;;;6.63;3.40;;;;;;;;;;5034082;28;20499;-62
2022/01/13 09:39:50;;;;;;;6.65;3.78;;;;;;;;;;5031691;28;20097;-62
2022/01/13 09:42:16;;;;;;;7.13;3.45;;;;;;;;;;5033915;28;20463;-62
2022/01/13 09:44:43;;;;;;;6.28;3.22;;;;;;;;;;5033117;28;20033;-62
2022/01/13 09:47:09;;;;;;;6.28;2.40;;;;;;;;;;5033158;28;20024;-62
2022/01/13 09:49:35;;;;;;;4.55;2.45;;;;;;;;;;5032219;28;20159;-61
2022/01/13 09:52:01;;;;;;;5.47;2.83;;;;;;;;;;5030883;28;20116;-62
2022/01/13 09:54:27;;;;;;;4.10;2.35;;;;;;;;;;5036640;28;20108;-62
2022/01/13 09:56:53;;;;;;;4.97;2.75;;;;;;;;;;5033487;28;20108;-62
2022/01/13 09:59:19;;;;;;;5.50;2.72;;;;;;;;;;5033618;28;20022;-61
2022/01/13 10:01:45;;;;;;;5.45;3.00;;;;;;;;;;5041008;28;20507;-62
2022/01/13 10:04:11;;;;;;;5.97;2.53;;;;;;;;;;5040160;28;20087;-62
2022/01/13 10:06:41;;;;;;;4.88;2.90;;;;;;;;;;5036052;28;20025;-63
2022/01/13 10:09:07;;;;;;;6.72;3.10;;;;;;;;;;5033257;28;20026;-73
2022/01/13 10:11:38;;;;;;;6.00;2.92;;;;;;;;;;5043554;28;20389;-69
2022/01/13 10:14:05;;;;;;;5.75;3.20;;;;;;;;;;5041787;28;20425;-64
2022/01/13 10:16:31;;;;;;;7.07;3.35;;;;;;;;;;5030444;28;20469;-68
2022/01/13 10:18:57;;;;;;;7.20;3.10;;;;;;;;;;5034773;28;20515;-63
2022/01/13 10:21:23;;;;;;;7.97;3.80;;;;;;;;;;5044589;28;20029;-63
2022/01/13 10:24:06;;;;;;;9.35;5.15;;;;;;;;;;5035393;28;20041;-65
2022/01/13 10:26:34;;;;;;;8.82;4.93;;;;;;;;;;5036964;28;20033;-63
2022/01/13 10:29:00;;;;;;;10.25;4.82;;;;;;;;;;5032683;28;20133;-64
2022/01/13 10:31:44;;;;;;;7.18;3.83;;;;;;;;;;5029634;28;20430;-66
2022/01/13 10:34:20;;;;;;;8.57;4.53;;;;;;;;;;5039130;28;20426;-65
2022/01/13 10:37:03;;;;;;;8.88;4.13;;;;;;;;;;5037613;28;20038;-64
2022/01/13 10:39:43;;;;;;;7.20;2.90;;;;;;;;;;5042820;28;20025;-65
2022/01/13 10:44:55;;;;;;;4.97;2.30;;;;;;;;;;5042112;28;20572;-65
2022/01/13 10:47:21;;;;;;;3.28;1.92;;;;;;;;;;5038303;28;20119;-65
2022/01/13 10:49:50;;;;;;;3.85;1.95;;;;;;;;;;5029223;28;20511;-65
2022/01/13 10:52:24;;;;;;;4.97;2.13;;;;;;;;;;5043466;28;20034;-65
2022/01/13 10:54:51;;;;;;;4.45;2.25;;;;;;;;;;5040889;28;20476;-66
2022/01/13 10:57:18;;;;;;;4.03;2.00;;;;;;;;;;5034405;28;20030;-66
2022/01/13 10:59:44;;;;;;;3.88;1.83;;;;;;;;;;5035938;28;20032;-66
2022/01/13 11:02:10;;;;;;;2.28;1.30;;;;;;;;;;5040476;28;20443;-66
2022/01/13 11:04:37;;;;;;;1.85;1.10;;;;;;;;;;5031015;28;20103;-65
2022/01/13 11:07:13;;;;;;;2.00;1.05;;;;;;;;;;5030953;28;20505;-65
2022/01/13 11:09:42;;;;;;;4.13;1.23;;;;;;;;;;5037171;28;20037;-66
2022/01/13 11:12:09;;;;;;;2.55;1.27;;;;;;;;;;5019328;28;20049;-63
2022/01/13 11:14:42;;;;;;;5.25;1.50;;;;;;;;;;5030964;28;20021;-63
2022/01/13 11:17:08;;;;;;;3.70;1.70;;;;;;;;;;5024513;28;20716;-63
2022/01/13 11:19:35;;;;;;;4.95;2.58;;;;;;;;;;5031531;28;20033;-63
2022/01/13 11:22:01;;;;;;;3.30;1.50;;;;;;;;;;5031534;28;20022;-63
2022/01/13 11:24:27;;;;;;;3.97;2.03;;;;;;;;;;5022024;28;20447;-62
2022/01/13 11:26:55;;;;;;;2.42;1.40;;;;;;;;;;5030803;28;20473;-62
2022/01/13 11:29:22;;;;;;;2.53;1.58;;;;;;;;;;5026592;28;20452;-62
2022/01/13 11:31:49;;;;;;;2.58;1.20;;;;;;;;;;5027937;28;20069;-62
2022/01/13 11:34:16;;;;;;;1.88;1.17;;;;;;;;;;5030747;28;20029;-62
2022/01/13 11:36:42;;;;;;;1.88;1.20;;;;;;;;;;5028043;28;20051;-62
2022/01/13 11:39:09;;;;;;;2.17;1.20;;;;;;;;;;5030503;28;20022;-63
2022/01/13 11:41:55;;;;;;;2.15;1.05;;;;;;;;;;5030196;28;20026;-62
2022/01/13 11:44:22;;;;;;;2.22;1.02;;;;;;;;;;5026586;28;20091;-62
2022/01/13 11:46:49;;;;;;;4.68;1.35;;;;;;;;;;5030206;28;20036;-62
2022/01/13 11:49:20;;;;;;;1.35;0.93;;;;;;;;;;5029482;28;20396;-63
2022/01/13 11:51:58;;;;;;;3.22;1.15;;;;;;;;;;5032359;28;20060;-63
2022/01/13 11:54:34;;;;;;;2.05;1.08;;;;;;;;;;5030062;28;20110;-63
2022/01/13 11:57:09;;;;;;;2.08;1.20;;;;;;;;;;5027303;28;20116;-67
2022/01/13 11:59:35;;;;;;;1.45;1.10;;;;;;;;;;5028256;28;20040;-66
2022/01/13 12:02:20;;;;;;;2.33;1.15;;;;;;;;;;5028702;28;20523;-65
2022/01/13 12:05:05;;;;;;;2.75;1.30;;;;;;;;;;5027045;28;20026;-68
2022/01/13 12:07:44;;;;;;;1.95;1.15;;;;;;;;;;5029444;28;20449;-65
2022/01/13 12:10:29;;;;;;;3.33;1.30;;;;;;;;;;5027749;28;20022;-64
2022/01/13 12:12:55;;;;;;;2.13;1.20;;;;;;;;;;5028332;28;20041;-65
2022/01/13 12:15:22;;;;;;;2.55;1.20;;;;;;;;;;5029024;28;20056;-71
2022/01/13 12:17:50;;;;;;;6.25;1.45;;;;;;;;;;5028254;28;20099;-69
2022/01/13 12:23:16;;;;;;;3.42;1.33;;;;;;;;;;5025935;28;20275;-68
2022/01/13 12:25:43;;;;;;;5.95;1.23;;;;;;;;;;5027775;28;20029;-67
2022/01/13 12:28:13;;;;;;;2.83;1.13;;;;;;;;;;5028044;28;20141;-67
2022/01/13 12:30:40;;;;;;;1.83;1.10;;;;;;;;;;5028403;28;20083;-67
2022/01/13 12:33:07;;;;;;;3.85;1.00;;;;;;;;;;5027566;28;20033;-67
2022/01/13 12:35:47;;;;;;;2.80;1.10;;;;;;;;;;5032869;28;20021;-67
2022/01/13 12:38:13;;;;;;;3.67;1.00;;;;;;;;;;5031485;28;20501;-68
2022/01/13 12:40:44;;;;;;;1.85;1.05;;;;;;;;;;5031993;28;20033;-67
2022/01/13 12:43:35;;;;;;;2.58;1.30;;;;;;;;;;5032302;28;20028;-67
2022/01/13 12:46:02;;;;;;;3.67;1.25;;;;;;;;;;5031166;28;20021;-68
2022/01/13 12:48:29;;;;;;;3.25;1.33;;;;;;;;;;5033405;28;20547;-68
2022/01/13 12:50:55;;;;;;;2.47;1.23;;;;;;;;;;5035792;28;20034;-67
2022/01/13 12:53:26;;;;;;;3.63;1.48;;;;;;;;;;5032399;28;20117;-68
2022/01/13 12:55:55;;;;;;;3.33;1.50;;;;;;;;;;5033963;28;20072;-68
2022/01/13 12:58:26;;;;;;;2.22;1.30;;;;;;;;;;5030730;28;20116;-68
2022/01/13 13:00:55;;;;;;;3.15;1.50;;;;;;;;;;5035728;28;20029;-68
2022/01/13 13:03:21;;;;;;;3.53;1.70;;;;;;;;;;5037417;28;20022;-68
2022/01/13 13:05:47;;;;;;;3.03;1.55;;;;;;;;;;5034386;28;20033;-69
2022/01/13 13:08:16;;;;;;;3.20;1.52;;;;;;;;;;5034016;28;20033;-68
2022/01/13 13:10:44;;;;;;;3.63;1.83;;;;;;;;;;5028980;28;20029;-67
2022/01/13 13:13:12;;;;;;;3.15;1.63;;;;;;;;;;5046992;28;20096;-68
2022/01/13 13:18:04;;;;;;;2.90;1.40;;;;;;;;;;5033980;28;20034;-68
2022/01/13 13:20:34;;;;;;;7.50;2.65;;;;;;;;;;5036778;28;20388;-68
2022/01/13 13:23:03;;;;;;;4.47;2.33;;;;;;;;;;5043242;28;20496;-67
2022/01/13 13:25:35;;;;;;;4.90;1.88;;;;;;;;;;5031521;28;20452;-68
2022/01/13 13:28:19;;;;;;;19.48;12.07;;;;;;;;;;5033564;28;20025;-68
2022/01/13 13:30:49;;;;;;;8.00;2.95;;;;;;;;;;5031545;28;20033;-67
2022/01/13 13:33:15;;;;;;;7.10;3.60;;;;;;;;;;5034342;28;20461;-68
2022/01/13 13:35:41;;;;;;;11.63;7.85;;;;;;;;;;5035572;28;20386;-67
2022/01/13 13:38:11;;;;;;;15.40;8.40;;;;;;;;;;5033349;28;20056;-67
2022/01/13 13:40:44;;;;;;;13.48;8.43;;;;;;;;;;5032427;28;20083;-67
2022/01/13 13:43:11;;;;;;;10.82;4.97;;;;;;;;;;5030138;28;20029;-67
2022/01/13 13:45:37;;;;;;;6.88;3.60;;;;;;;;;;5036570;28;20021;-67
2022/01/13 13:48:03;;;;;;;9.52;5.20;;;;;;;;;;5031890;28;20475;-67
2022/01/13 13:50:29;;;;;;;6.90;3.53;;;;;;;;;;5033224;28;20032;-67
2022/01/13 13:53:16;;;;;;;8.73;4.07;;;;;;;;;;5032167;28;20116;-67
2022/01/13 13:55:55;;;;;;;9.48;4.60;;;;;;;;;;5031300;28;20055;-68
2022/01/13 13:58:21;;;;;;;6.80;4.00;;;;;;;;;;5012984;28;20030;-67
2022/01/13 14:00:47;;;;;;;9.55;3.80;;;;;;;;;;5036375;28;20104;-67
2022/01/13 14:03:21;;;;;;;15.75;7.65;;;;;;;;;;5032192;28;20194;-68
2022/01/13 14:05:47;;;;;;;13.05;6.63;;;;;;;;;;5032899;28;20045;-67
2022/01/13 14:08:13;;;;;;;9.00;4.40;;;;;;;;;;5031613;28;20050;-67
2022/01/13 14:10:39;;;;;;;6.38;3.15;;;;;;;;;;5029203;28;20026;-68
2022/01/13 14:13:05;;;;;;;11.05;4.30;;;;;;;;;;5046481;28;20051;-68
2022/01/13 14:15:38;;;;;;;6.32;2.95;;;;;;;;;;5034200;28;20400;-69
2022/01/13 14:18:14;;;;;;;6.53;3.65;;;;;;;;;;5032550;28;20036;-68
2022/01/13 14:20:56;;;;;;;6.00;3.25;;;;;;;;;;5039753;28;20729;-68
2022/01/13 14:23:26;;;;;;;8.20;4.40;;;;;;;;;;5040119;28;20112;-68
2022/01/13 14:25:54;;;;;;;10.70;4.32;;;;;;;;;;5036989;28;20021;-68
2022/01/13 14:28:22;;;;;;;8.43;4.20;;;;;;;;;;5034945;28;20087;-68
2022/01/13 14:30:49;;;;;;;9.45;3.72;;;;;;;;;;5034200;28;20025;-68
2022/01/13 14:33:25;;;;;;;8.60;3.95;;;;;;;;;;5033644;28;20765;-68
2022/01/13 14:35:58;;;;;;;9.40;3.90;;;;;;;;;;5039462;28;20075;-67
2022/01/13 14:38:33;;;;;;;10.23;4.43;;;;;;;;;;5034266;28;20047;-67
2022/01/13 14:40:59;;;;;;;13.00;6.53;;;;;;;;;;5032016;28;20115;-68
2022/01/13 14:43:25;;;;;;;11.45;6.15;;;;;;;;;;5040135;28;20404;-68
2022/01/13 14:46:12;;;;;;;10.40;4.93;;;;;;;;;;5033736;28;20084;-68
2022/01/13 14:48:41;;;;;;;10.27;5.30;;;;;;;;;;5035165;28;20037;-68
2022/01/13 14:51:14;;;;;;;10.57;5.30;;;;;;;;;;5039947;28;20036;-68
2022/01/13 14:53:41;;;;;;;10.75;5.30;;;;;;;;;;5041657;28;20037;-68
2022/01/13 14:56:08;;;;;;;11.77;5.50;;;;;;;;;;5043613;28;20025;-68
2022/01/13 14:58:34;;;;;;;12.32;5.93;;;;;;;;;;5036918;28;20029;-68
2022/01/13 15:01:01;;;;;;;14.20;8.15;;;;;;;;;;5032165;28;20033;-68
2022/01/13 15:03:27;;;;;;;19.50;9.93;;;;;;;;;;5033793;28;20038;-68
2022/01/13 15:05:54;;;;;;;20.35;10.65;;;;;;;;;;5032119;28;20043;-67
2022/01/13 15:08:20;;;;;;;19.52;9.88;;;;;;;;;;5032135;28;20060;-68
2022/01/13 15:10:46;;;;;;;23.52;11.25;;;;;;;;;;5031360;28;20025;-68
2022/01/13 15:13:12;;;;;;;20.20;10.38;;;;;;;;;;5028822;28;20898;-68
2022/01/13 15:15:38;;;;;;;12.35;5.82;;;;;;;;;;5035412;28;20026;-68
2022/01/13 15:18:04;;;;;;;14.15;7.65;;;;;;;;;;5032293;28;20476;-68
2022/01/13 15:20:31;;;;;;;12.90;6.70;;;;;;;;;;5032595;28;20026;-68